Terminal Aerodrome Forecast
Issued by NWS Sterling, VA

Current Version | Previous Version | Text Only | Print | Product List | Glossary Off
Versions: 1 2 3 4 5 6 7 8 9 10 11 12 13 14 15 16 17 18 19 20 21 22 23 24

967
FTUS41 KLWX 061739
TAFIAD
TAF
KIAD 061739Z 0618/0724 19010KT P6SM BKN200
     FM070100 VRB03KT P6SM SCT150
     FM071400 01008KT P6SM SCT200=

USA.gov is the U.S. government's official web portal to all federal, state and local government web resources and services.